createdAt,value
2023-01-29T00:01:57.313Z,30.70
2023-01-29T00:04:24.567Z,33.40
2023-01-29T00:06:51.368Z,35.78
2023-01-29T00:09:18.424Z,32.75
2023-01-29T00:11:45.219Z,32.47
2023-01-29T00:14:12.007Z,30.02
2023-01-29T00:16:38.775Z,35.00
2023-01-29T00:19:05.806Z,30.90
2023-01-29T00:21:32.620Z,28.80
2023-01-29T00:23:59.955Z,31.02
2023-01-29T00:26:27.721Z,32.20
2023-01-29T00:28:57.304Z,32.35
2023-01-29T00:31:25.387Z,30.75
2023-01-29T00:33:52.791Z,37.00
2023-01-29T00:36:21.859Z,36.85
2023-01-29T00:38:58.424Z,38.55
2023-01-29T00:41:49.714Z,34.13
2023-01-29T00:44:35.992Z,35.53
2023-01-29T00:47:04.155Z,33.88
2023-01-29T00:49:31.192Z,36.80
2023-01-29T00:52:16.399Z,31.70
2023-01-29T00:54:43.192Z,30.50
2023-01-29T00:57:09.921Z,25.73
2023-01-29T00:59:36.649Z,27.42
2023-01-29T01:02:21.968Z,28.35
2023-01-29T01:04:48.765Z,33.15
2023-01-29T01:07:15.524Z,27.08
2023-01-29T01:10:00.709Z,30.58
2023-01-29T01:12:28.666Z,30.55
2023-01-29T01:14:55.427Z,33.03
2023-01-29T01:17:22.226Z,31.38
2023-01-29T01:19:49.017Z,35.00
2023-01-29T01:22:15.921Z,34.30
2023-01-29T01:24:42.712Z,37.72
2023-01-29T01:27:09.478Z,34.25
2023-01-29T01:29:36.771Z,39.92
2023-01-29T01:32:03.793Z,43.15
2023-01-29T01:34:30.697Z,33.00
2023-01-29T01:36:57.537Z,38.42
2023-01-29T01:39:25.266Z,32.58
2023-01-29T01:41:56.312Z,37.47
2023-01-29T01:44:52.887Z,32.28
2023-01-29T01:47:28.153Z,31.35
2023-01-29T01:49:57.052Z,32.08
2023-01-29T01:52:24.156Z,35.33
2023-01-29T01:54:51.995Z,33.72
2023-01-29T01:57:24.838Z,34.33
2023-01-29T01:59:59.877Z,33.08
2023-01-29T02:02:46.471Z,25.55
2023-01-29T02:05:33.362Z,27.58
2023-01-29T02:08:18.848Z,27.77
2023-01-29T02:10:49.000Z,26.33
2023-01-29T02:13:17.345Z,33.05
2023-01-29T02:15:48.702Z,30.30
2023-01-29T02:18:21.399Z,24.07
2023-01-29T02:21:05.226Z,30.73
2023-01-29T02:24:00.150Z,27.33
2023-01-29T02:26:37.493Z,30.83
2023-01-29T02:29:22.641Z,24.98
2023-01-29T02:32:17.248Z,30.20
2023-01-29T02:35:07.632Z,34.70
2023-01-29T02:38:11.166Z,33.70
2023-01-29T02:40:49.706Z,35.25
2023-01-29T02:43:37.243Z,36.35
2023-01-29T02:46:17.669Z,35.58
2023-01-29T02:49:23.779Z,32.38
2023-01-29T02:52:09.397Z,33.78
2023-01-29T02:54:47.067Z,32.50
2023-01-29T02:57:23.227Z,31.20
2023-01-29T03:00:00.101Z,32.42
2023-01-29T03:02:40.646Z,27.25
2023-01-29T03:05:17.457Z,29.52
2023-01-29T03:07:56.724Z,30.58
2023-01-29T03:10:31.825Z,27.52
2023-01-29T03:13:10.444Z,26.83
2023-01-29T03:15:46.783Z,35.15
2023-01-29T03:18:18.614Z,25.13
2023-01-29T03:20:51.130Z,28.60
2023-01-29T03:23:27.098Z,31.33
2023-01-29T03:26:17.816Z,32.28
2023-01-29T03:29:05.454Z,28.30
2023-01-29T03:31:52.258Z,27.40
2023-01-29T03:34:34.530Z,25.02
2023-01-29T03:37:19.153Z,32.85
2023-01-29T03:39:46.013Z,29.58
2023-01-29T03:42:36.839Z,32.60
2023-01-29T03:45:14.566Z,32.63
2023-01-29T03:48:01.954Z,31.80
2023-01-29T03:50:44.095Z,31.67
2023-01-29T03:53:43.897Z,31.33
2023-01-29T03:57:05.136Z,33.72
2023-01-29T04:00:09.409Z,31.52
2023-01-29T04:02:55.653Z,35.28
2023-01-29T04:05:29.119Z,35.70
2023-01-29T04:08:05.379Z,35.22
2023-01-29T04:10:36.224Z,33.38
2023-01-29T04:13:10.634Z,34.95
2023-01-29T04:15:47.675Z,33.65
2023-01-29T04:18:14.475Z,33.80
2023-01-29T04:20:42.052Z,39.08
2023-01-29T04:23:22.319Z,35.47
2023-01-29T04:26:10.029Z,34.40
2023-01-29T04:29:16.191Z,40.63
2023-01-29T04:32:06.331Z,37.47
2023-01-29T04:35:14.588Z,35.30
2023-01-29T04:37:59.146Z,36.50
2023-01-29T04:40:33.074Z,41.92
2023-01-29T04:43:09.455Z,36.17
2023-01-29T04:46:19.167Z,41.67
2023-01-29T04:48:57.961Z,36.15
2023-01-29T04:52:05.414Z,32.92
2023-01-29T04:54:36.596Z,39.60
2023-01-29T04:57:17.248Z,40.30
2023-01-29T04:59:51.314Z,35.85
2023-01-29T05:02:22.484Z,35.15
2023-01-29T05:04:50.662Z,30.45
2023-01-29T05:07:18.993Z,34.15
2023-01-29T05:09:47.273Z,40.47
2023-01-29T05:12:18.032Z,41.90
2023-01-29T05:14:46.781Z,36.08
2023-01-29T05:17:20.317Z,50.88
2023-01-29T05:19:47.564Z,48.45
2023-01-29T05:22:17.882Z,44.58
2023-01-29T05:24:44.843Z,64.53
2023-01-29T05:27:39.908Z,47.33
2023-01-29T05:30:07.727Z,45.38
2023-01-29T05:32:34.495Z,43.65
2023-01-29T05:35:01.352Z,50.13
2023-01-29T05:37:28.103Z,48.00
2023-01-29T06:02:31.623Z,46.33
2023-01-29T06:04:58.461Z,51.42
2023-01-29T06:07:27.308Z,45.92
2023-01-29T06:09:54.098Z,55.10
2023-01-29T06:12:20.921Z,63.95
2023-01-29T06:14:47.717Z,45.38
2023-01-29T06:17:14.498Z,54.85
2023-01-29T06:19:41.301Z,54.30
2023-01-29T06:22:08.048Z,54.97
2023-01-29T06:24:34.767Z,46.40
2023-01-29T06:27:01.565Z,48.90
2023-01-29T06:29:28.275Z,51.75
2023-01-29T06:31:55.175Z,58.65
2023-01-29T06:34:21.977Z,53.50
2023-01-29T06:36:48.709Z,56.00
2023-01-29T06:39:15.946Z,55.33
2023-01-29T06:41:42.754Z,59.38
2023-01-29T06:44:09.463Z,62.80
2023-01-29T06:46:36.291Z,62.20
2023-01-29T06:49:03.054Z,63.10
2023-01-29T06:51:29.847Z,58.33
2023-01-29T06:53:56.657Z,62.33
2023-01-29T06:56:23.996Z,61.22
2023-01-29T06:58:50.787Z,60.25
2023-01-29T07:01:34.793Z,59.40
2023-01-29T07:04:02.902Z,59.22
2023-01-29T07:06:30.564Z,65.72
2023-01-29T07:08:57.309Z,59.45
2023-01-29T07:11:24.374Z,65.18
2023-01-29T07:13:51.180Z,58.38
2023-01-29T07:16:19.101Z,58.95
2023-01-29T07:18:46.043Z,54.42
2023-01-29T07:21:12.803Z,64.20
2023-01-29T07:23:39.575Z,64.10
2023-01-29T07:26:06.956Z,56.45
2023-01-29T07:28:38.979Z,62.95
2023-01-29T07:31:06.900Z,64.45
2023-01-29T07:33:34.214Z,54.78
2023-01-29T07:36:00.987Z,58.08
2023-01-29T07:38:27.748Z,62.95
2023-01-29T07:40:54.666Z,59.05
2023-01-29T07:43:21.474Z,57.78
2023-01-29T07:45:48.343Z,69.93
2023-01-29T07:48:15.120Z,70.65
2023-01-29T07:50:42.071Z,65.55
2023-01-29T07:53:15.778Z,59.30
2023-01-29T07:55:45.566Z,58.85
2023-01-29T07:58:12.618Z,62.78
2023-01-29T08:00:39.701Z,59.83
2023-01-29T08:03:12.149Z,49.97
2023-01-29T08:05:38.888Z,53.38
2023-01-29T08:08:07.685Z,51.00
2023-01-29T08:10:36.468Z,47.33
2023-01-29T08:13:04.913Z,61.13
2023-01-29T08:15:33.089Z,54.17
2023-01-29T08:18:02.232Z,52.97
2023-01-29T08:20:29.294Z,55.95
2023-01-29T08:23:01.542Z,59.97
2023-01-29T08:27:57.846Z,54.80
2023-01-29T08:30:27.337Z,58.20
2023-01-29T08:32:54.281Z,58.80
2023-01-29T08:35:21.743Z,61.38
2023-01-29T08:38:00.588Z,60.78
2023-01-29T08:40:28.851Z,58.95
2023-01-29T08:43:06.961Z,56.00
2023-01-29T08:45:37.799Z,52.47
2023-01-29T08:48:05.055Z,53.05
2023-01-29T08:50:32.848Z,52.58
2023-01-29T08:53:03.056Z,51.25
2023-01-29T08:55:30.029Z,64.38
2023-01-29T08:57:59.356Z,57.20
2023-01-29T09:00:26.298Z,53.83
2023-01-29T09:02:53.073Z,52.75
2023-01-29T09:05:20.232Z,58.15
2023-01-29T09:07:49.117Z,50.80
2023-01-29T09:10:16.811Z,50.58
2023-01-29T09:12:43.569Z,51.25
2023-01-29T09:15:11.008Z,50.78
2023-01-29T09:17:37.773Z,52.00
2023-01-29T09:20:07.728Z,53.60
2023-01-29T09:22:34.684Z,55.88
2023-01-29T09:25:01.425Z,49.67
2023-01-29T09:27:28.417Z,60.20
2023-01-29T09:29:55.176Z,47.15
2023-01-29T09:32:49.818Z,51.45
2023-01-29T09:35:09.236Z,46.92
2023-01-29T09:37:35.972Z,48.33
2023-01-29T09:40:02.783Z,51.22
2023-01-29T09:42:45.194Z,46.95
2023-01-29T09:47:48.719Z,45.33
2023-01-29T09:50:38.450Z,50.35
2023-01-29T09:53:13.429Z,49.95
2023-01-29T09:55:49.635Z,54.65
2023-01-29T09:58:29.230Z,46.40
2023-01-29T10:01:11.969Z,53.92
2023-01-29T10:04:07.774Z,51.20
2023-01-29T10:07:04.797Z,51.55
2023-01-29T10:09:40.196Z,47.97
2023-01-29T10:12:51.305Z,46.08
2023-01-29T10:15:39.540Z,44.08
2023-01-29T10:19:05.979Z,42.40
2023-01-29T10:21:54.333Z,46.38
2023-01-29T10:25:02.543Z,46.72
2023-01-29T10:27:35.222Z,54.63
2023-01-29T10:30:09.492Z,42.15
2023-01-29T10:32:37.787Z,43.28
2023-01-29T10:35:24.851Z,45.20
2023-01-29T10:37:54.090Z,44.78
2023-01-29T10:40:29.925Z,44.55
2023-01-29T10:43:06.313Z,43.35
2023-01-29T10:46:11.763Z,42.83
2023-01-29T10:48:49.149Z,40.25
2023-01-29T10:51:53.743Z,39.38
2023-01-29T10:54:23.056Z,41.63
2023-01-29T10:57:10.942Z,44.22
2023-01-29T10:59:46.884Z,43.20
2023-01-29T11:02:18.548Z,43.60
2023-01-29T11:04:45.779Z,42.05
2023-01-29T11:07:14.518Z,45.10
2023-01-29T11:10:12.567Z,42.40
2023-01-29T11:12:41.616Z,43.42
2023-01-29T11:15:21.052Z,39.42
2023-01-29T11:18:15.965Z,44.45
2023-01-29T11:20:45.193Z,37.78
2023-01-29T11:23:33.862Z,38.75
2023-01-29T11:26:01.512Z,41.65
2023-01-29T11:28:45.663Z,42.00
2023-01-29T11:31:40.943Z,39.33
2023-01-29T11:34:21.542Z,40.38
2023-01-29T11:37:02.841Z,42.88
2023-01-29T11:39:33.249Z,41.42
2023-01-29T11:42:03.960Z,39.95
2023-01-29T11:44:39.714Z,42.55
2023-01-29T11:47:30.449Z,43.30
2023-01-29T11:50:01.678Z,43.03
2023-01-29T11:52:38.536Z,42.63
2023-01-29T11:55:17.968Z,42.83
2023-01-29T11:57:54.137Z,34.80
2023-01-29T12:00:24.861Z,39.83
2023-01-29T12:02:59.097Z,40.67
2023-01-29T12:05:27.292Z,39.05
2023-01-29T12:07:59.936Z,42.00
2023-01-29T12:10:35.572Z,35.22
2023-01-29T12:13:06.506Z,38.72
2023-01-29T12:15:33.377Z,37.15
2023-01-29T12:18:32.858Z,37.67
2023-01-29T12:21:28.235Z,44.22
2023-01-29T12:24:13.960Z,40.65
2023-01-29T12:26:49.656Z,37.47
2023-01-29T12:29:33.655Z,44.97
2023-01-29T12:32:47.608Z,46.25
2023-01-29T12:35:25.029Z,38.15
2023-01-29T12:38:23.159Z,39.00
2023-01-29T12:41:04.009Z,42.13
2023-01-29T12:43:43.298Z,37.92
2023-01-29T12:46:27.411Z,41.20
2023-01-29T12:48:59.694Z,39.03
2023-01-29T12:54:15.261Z,38.60
2023-01-29T12:57:14.298Z,37.00
2023-01-29T12:59:56.845Z,42.45
2023-01-29T13:02:36.734Z,38.15
2023-01-29T13:05:31.046Z,39.53
2023-01-29T13:08:10.028Z,40.20
2023-01-29T13:10:43.432Z,38.45
2023-01-29T13:13:30.649Z,36.53
2023-01-29T13:16:00.055Z,36.45
2023-01-29T13:18:56.017Z,44.95
2023-01-29T13:21:31.902Z,38.40
2023-01-29T13:24:05.101Z,34.50
2023-01-29T13:26:32.539Z,39.95
2023-01-29T13:28:59.329Z,37.40
2023-01-29T13:31:32.664Z,33.90
2023-01-29T13:34:37.456Z,34.63
2023-01-29T13:37:11.697Z,31.42
2023-01-29T13:39:46.946Z,31.60
2023-01-29T13:42:22.665Z,36.95
2023-01-29T13:45:03.474Z,34.55
2023-01-29T13:47:40.044Z,33.22
2023-01-29T13:50:19.383Z,35.55
2023-01-29T13:52:55.242Z,35.47
2023-01-29T13:55:31.411Z,34.40
2023-01-29T13:58:02.889Z,32.25
2023-01-29T14:00:35.597Z,30.50
2023-01-29T14:03:05.250Z,35.88
2023-01-29T14:05:31.990Z,35.47
2023-01-29T14:08:17.648Z,33.20
2023-01-29T14:10:44.880Z,34.20
2023-01-29T14:13:21.359Z,34.28
2023-01-29T14:15:57.159Z,37.92
2023-01-29T14:18:29.948Z,32.35
2023-01-29T14:21:05.890Z,36.45
2023-01-29T14:23:41.209Z,35.30
2023-01-29T14:26:53.042Z,38.38
2023-01-29T14:29:34.625Z,31.17
2023-01-29T14:32:21.393Z,33.90
2023-01-29T14:35:20.020Z,32.38
2023-01-29T14:37:51.012Z,32.10
2023-01-29T14:40:24.771Z,31.77
2023-01-29T14:43:06.825Z,37.08
2023-01-29T14:45:37.211Z,37.08
2023-01-29T14:48:10.125Z,33.92
2023-01-29T14:50:36.786Z,37.17
2023-01-29T14:53:49.573Z,38.55
2023-01-29T14:56:34.832Z,45.10
2023-01-29T14:59:13.033Z,34.38
2023-01-29T15:01:47.441Z,37.00
2023-01-29T15:04:27.035Z,34.05
2023-01-29T15:07:04.785Z,39.35
2023-01-29T15:09:48.383Z,38.53
2023-01-29T15:12:24.342Z,34.78
2023-01-29T15:15:03.855Z,40.20
2023-01-29T15:17:40.640Z,36.53
2023-01-29T15:20:44.014Z,38.42
2023-01-29T15:23:27.899Z,37.97
2023-01-29T15:26:01.564Z,37.28
2023-01-29T15:28:32.182Z,34.40
2023-01-29T15:31:04.117Z,40.58
2023-01-29T15:33:32.282Z,35.58
2023-01-29T15:36:07.380Z,38.65
2023-01-29T15:38:34.736Z,38.97
2023-01-29T15:41:20.317Z,40.22
2023-01-29T15:43:57.405Z,34.83
2023-01-29T15:46:33.902Z,37.33
2023-01-29T15:49:08.912Z,34.70
2023-01-29T15:51:36.118Z,41.17
2023-01-29T15:54:06.396Z,36.08
2023-01-29T15:56:44.538Z,32.97
2023-01-29T15:59:29.423Z,40.00
2023-01-29T16:01:56.338Z,38.95
2023-01-29T16:04:31.332Z,36.80
2023-01-29T16:07:00.681Z,36.10
2023-01-29T16:09:28.838Z,36.85
2023-01-29T16:11:58.822Z,38.97
2023-01-29T16:14:26.861Z,39.50
2023-01-29T16:16:54.052Z,39.78
2023-01-29T16:19:28.111Z,40.08
2023-01-29T16:22:01.634Z,39.67
2023-01-29T16:24:31.131Z,36.38
2023-01-29T16:27:13.605Z,40.40
2023-01-29T16:32:12.188Z,37.75
2023-01-29T16:34:42.925Z,37.40
2023-01-29T16:37:30.348Z,41.85
2023-01-29T16:39:58.054Z,42.72
2023-01-29T16:42:28.387Z,46.00
2023-01-29T16:45:02.435Z,40.63
2023-01-29T16:47:38.354Z,40.90
2023-01-29T16:50:27.077Z,40.33
2023-01-29T16:53:05.505Z,38.90
2023-01-29T16:55:43.488Z,40.45
2023-01-29T16:58:18.647Z,40.53
2023-01-29T17:01:02.734Z,44.58
2023-01-29T17:03:33.336Z,37.75
2023-01-29T17:06:22.486Z,41.58
2023-01-29T17:08:49.623Z,44.03
2023-01-29T17:11:38.656Z,40.10
2023-01-29T17:14:07.783Z,40.75
2023-01-29T17:16:37.727Z,42.83
2023-01-29T17:19:18.383Z,38.63
2023-01-29T17:21:45.786Z,38.85
2023-01-29T17:24:12.766Z,35.20
2023-01-29T17:26:40.109Z,39.05
2023-01-29T17:29:13.865Z,40.47
2023-01-29T17:31:40.668Z,38.00
2023-01-29T17:34:15.021Z,36.45
2023-01-29T17:36:43.230Z,40.03
2023-01-29T17:39:22.284Z,36.90
2023-01-29T17:41:58.810Z,36.97
2023-01-29T17:44:28.232Z,40.15
2023-01-29T17:46:55.085Z,36.10
2023-01-29T17:49:30.155Z,42.85
2023-01-29T17:51:57.187Z,42.70
2023-01-29T17:54:25.520Z,39.05
2023-01-29T17:56:53.547Z,40.15
2023-01-29T17:59:28.867Z,38.35
2023-01-29T18:01:55.845Z,34.97
2023-01-29T18:04:22.759Z,38.40
2023-01-29T18:06:51.942Z,38.38
2023-01-29T18:09:20.738Z,35.85
2023-01-29T18:11:49.181Z,35.15
2023-01-29T18:14:16.550Z,35.58
2023-01-29T18:16:44.738Z,38.90
2023-01-29T18:19:22.058Z,37.08
2023-01-29T18:21:50.301Z,40.17
2023-01-29T18:24:17.131Z,37.60
2023-01-29T18:26:43.896Z,35.55
2023-01-29T18:29:10.715Z,35.15
2023-01-29T18:31:37.528Z,34.53
2023-01-29T18:34:04.760Z,35.03
2023-01-29T18:36:31.548Z,35.22
2023-01-29T18:38:58.352Z,31.92
2023-01-29T18:41:25.093Z,35.88
2023-01-29T18:43:52.683Z,32.53
2023-01-29T18:46:20.062Z,35.20
2023-01-29T18:48:46.798Z,28.75
2023-01-29T18:51:13.555Z,31.02
2023-01-29T18:53:40.530Z,33.55
2023-01-29T18:56:08.254Z,33.28
2023-01-29T18:58:37.027Z,33.20
2023-01-29T19:01:09.539Z,32.47
2023-01-29T19:03:38.364Z,35.78
2023-01-29T19:06:08.431Z,31.35
2023-01-29T19:08:35.991Z,32.70
2023-01-29T19:11:05.449Z,34.70
2023-01-29T19:13:32.836Z,33.60
2023-01-29T19:15:59.634Z,31.48
2023-01-29T19:18:27.814Z,31.98
2023-01-29T19:20:55.229Z,31.05
2023-01-29T19:23:22.165Z,34.45
2023-01-29T19:25:49.036Z,33.72
2023-01-29T19:28:16.136Z,36.20
2023-01-29T19:30:43.096Z,38.40
2023-01-29T19:33:10.725Z,33.92
2023-01-29T19:35:37.559Z,41.08
2023-01-29T19:38:05.037Z,31.92
2023-01-29T19:40:31.993Z,38.53
2023-01-29T19:42:58.793Z,38.28
2023-01-29T19:45:49.690Z,38.03
2023-01-29T19:48:14.391Z,36.92
2023-01-29T19:50:41.633Z,31.63
2023-01-29T19:53:08.396Z,36.80
2023-01-29T19:55:35.112Z,36.83
2023-01-29T19:58:03.441Z,39.08
2023-01-29T20:00:30.254Z,41.58
2023-01-29T20:02:57.027Z,34.45
2023-01-29T20:05:26.884Z,39.85
2023-01-29T20:07:53.926Z,39.08
2023-01-29T20:10:21.184Z,39.83
2023-01-29T20:12:48.231Z,36.05
2023-01-29T20:15:15.680Z,36.42
2023-01-29T20:17:43.517Z,39.50
2023-01-29T20:20:10.934Z,41.95
2023-01-29T20:22:37.657Z,36.80
2023-01-29T20:25:04.652Z,37.35
2023-01-29T20:27:31.373Z,35.40
2023-01-29T20:29:58.408Z,38.40
2023-01-29T20:32:25.121Z,36.70
2023-01-29T20:34:52.471Z,37.53
2023-01-29T20:37:19.670Z,39.42
2023-01-29T20:39:47.092Z,37.55
2023-01-29T20:42:13.885Z,42.40
2023-01-29T20:44:40.685Z,38.03
2023-01-29T20:47:08.354Z,38.75
2023-01-29T20:49:35.114Z,38.45
2023-01-29T20:52:02.021Z,32.55
2023-01-29T20:54:29.886Z,36.22
2023-01-29T20:56:56.893Z,36.83
2023-01-29T20:59:23.662Z,38.88
2023-01-29T21:01:50.450Z,39.47
2023-01-29T21:04:17.198Z,38.92
2023-01-29T21:06:43.932Z,35.42
2023-01-29T21:09:10.673Z,38.05
2023-01-29T21:11:37.374Z,36.85
2023-01-29T21:14:04.210Z,41.25
2023-01-29T21:16:31.233Z,35.13
2023-01-29T21:18:58.920Z,39.55
2023-01-29T21:21:26.571Z,34.97
2023-01-29T21:23:54.047Z,34.45
2023-01-29T21:26:21.470Z,38.72
2023-01-29T21:28:48.278Z,36.75
2023-01-29T21:31:16.793Z,38.88
2023-01-29T21:33:44.116Z,36.15
2023-01-29T21:36:11.578Z,33.92
2023-01-29T21:38:39.566Z,36.95
2023-01-29T21:41:09.841Z,44.92
2023-01-29T21:43:37.288Z,41.65
2023-01-29T21:46:13.399Z,42.00
2023-01-29T21:48:40.550Z,45.20
2023-01-29T21:51:07.750Z,41.42
2023-01-29T21:53:34.835Z,46.45
2023-01-29T21:56:04.221Z,43.97
2023-01-29T21:58:31.763Z,45.03
2023-01-29T22:01:17.934Z,43.30
2023-01-29T22:03:47.245Z,44.38
2023-01-29T22:06:14.916Z,42.30
2023-01-29T22:08:41.656Z,42.95
2023-01-29T22:11:09.108Z,50.70
2023-01-29T22:13:35.956Z,46.72
2023-01-29T22:16:02.674Z,40.78
2023-01-29T22:18:29.430Z,47.63
2023-01-29T22:20:56.940Z,43.60
2023-01-29T22:23:24.608Z,42.90
2023-01-29T22:25:51.351Z,45.05
2023-01-29T22:28:18.745Z,47.90
2023-01-29T22:30:45.695Z,46.10
2023-01-29T22:33:12.681Z,44.13
2023-01-29T22:35:39.385Z,40.92
2023-01-29T22:38:06.459Z,44.97
2023-01-29T22:40:33.205Z,45.88
2023-01-29T22:42:59.954Z,43.35
2023-01-29T22:45:27.195Z,42.95
2023-01-29T22:47:53.989Z,40.17
2023-01-29T22:50:20.990Z,47.33
2023-01-29T22:52:53.393Z,42.97
2023-01-29T22:55:20.541Z,45.88
2023-01-29T22:57:49.689Z,40.42
2023-01-29T23:00:17.517Z,41.20
2023-01-29T23:02:47.071Z,36.85
2023-01-29T23:05:14.024Z,40.75
2023-01-29T23:07:40.741Z,38.97
2023-01-29T23:10:08.528Z,41.53
2023-01-29T23:12:35.237Z,38.53
2023-01-29T23:15:01.978Z,38.40
2023-01-29T23:17:28.681Z,49.40
2023-01-29T23:19:55.399Z,47.67
2023-01-29T23:22:22.083Z,46.53
2023-01-29T23:24:48.840Z,45.58
2023-01-29T23:27:15.645Z,49.05
2023-01-29T23:29:44.521Z,41.83
2023-01-29T23:32:14.391Z,49.67
2023-01-29T23:34:41.206Z,46.45
2023-01-29T23:37:08.296Z,44.20
2023-01-29T23:39:35.248Z,42.85
2023-01-29T23:42:02.290Z,49.08
2023-01-29T23:44:29.284Z,49.08
2023-01-29T23:46:56.538Z,45.65
2023-01-29T23:49:23.412Z,43.78
2023-01-29T23:51:51.168Z,47.03
2023-01-29T23:54:18.227Z,47.47
2023-01-29T23:56:45.091Z,45.17
2023-01-29T23:59:11.969Z,49.50
